createdAt,value
2022-09-15T00:02:10.342Z,100264.59
2022-09-15T00:04:36.895Z,100267.00
2022-09-15T00:07:04.490Z,100263.97
2022-09-15T00:09:31.172Z,100262.16
2022-09-15T00:11:57.619Z,100266.97
2022-09-15T00:14:24.276Z,100267.69
2022-09-15T00:16:50.755Z,100263.00
2022-09-15T00:19:17.345Z,100271.13
2022-09-15T00:21:43.838Z,100266.78
2022-09-15T00:24:10.474Z,100270.78
2022-09-15T00:26:36.894Z,100266.91
2022-09-15T00:29:03.713Z,100264.22
2022-09-15T00:31:31.248Z,100271.31
2022-09-15T00:33:59.883Z,100271.19
2022-09-15T00:36:26.798Z,100267.13
2022-09-15T00:38:53.285Z,100261.34
2022-09-15T00:41:21.386Z,100268.84
2022-09-15T00:43:47.763Z,100276.97
2022-09-15T00:46:16.141Z,100255.19
2022-09-15T00:48:53.688Z,100266.69
2022-09-15T00:51:24.476Z,100273.72
2022-09-15T00:53:52.081Z,100274.91
2022-09-15T00:56:19.686Z,100266.91
2022-09-15T00:58:53.725Z,100271.25
2022-09-15T01:01:20.228Z,100274.91
2022-09-15T01:03:47.010Z,100278.44
2022-09-15T01:06:39.647Z,100274.88
2022-09-15T01:09:12.878Z,100285.09
2022-09-15T01:11:39.955Z,100285.94
2022-09-15T01:14:06.375Z,100288.00
2022-09-15T01:16:58.552Z,100289.44
2022-09-15T01:19:33.918Z,100283.34
2022-09-15T01:22:15.060Z,100289.53
2022-09-15T01:24:45.137Z,100281.22
2022-09-15T01:27:42.174Z,100273.50
2022-09-15T01:30:10.927Z,100276.56
2022-09-15T01:33:05.214Z,100283.84
2022-09-15T01:35:53.212Z,100272.06
2022-09-15T01:38:31.649Z,100273.28
2022-09-15T01:41:05.818Z,100283.47
2022-09-15T01:43:35.208Z,100279.41
2022-09-15T01:46:03.692Z,100271.53
2022-09-15T01:48:32.110Z,100267.78
2022-09-15T01:51:00.739Z,100273.09
2022-09-15T01:53:28.139Z,100268.88
2022-09-15T01:56:02.360Z,100283.28
2022-09-15T01:58:28.902Z,100284.97
2022-09-15T02:01:15.012Z,100283.28
2022-09-15T02:03:55.738Z,100279.41
2022-09-15T02:06:36.684Z,100280.78
2022-09-15T02:09:28.762Z,100278.25
2022-09-15T02:12:06.790Z,100280.03
2022-09-15T02:14:44.952Z,100278.84
2022-09-15T02:17:15.050Z,100283.03
2022-09-15T02:19:45.697Z,100282.06
2022-09-15T02:22:27.804Z,100287.91
2022-09-15T02:25:02.170Z,100277.34
2022-09-15T02:27:30.999Z,100283.09
2022-09-15T02:30:00.690Z,100284.94
2022-09-15T02:32:28.657Z,100280.50
2022-09-15T02:34:55.514Z,100274.19
2022-09-15T02:37:22.980Z,100286.63
2022-09-15T02:39:54.850Z,100281.06
2022-09-15T02:42:29.502Z,100263.78
2022-09-15T02:44:56.107Z,100285.66
2022-09-15T02:47:23.201Z,100294.03
2022-09-15T02:49:49.824Z,100285.50
2022-09-15T02:52:16.358Z,100275.84
2022-09-15T02:54:43.028Z,100280.44
2022-09-15T02:57:09.434Z,100274.41
2022-09-15T02:59:54.606Z,100274.06
2022-09-15T03:02:21.116Z,100278.59
2022-09-15T03:04:47.832Z,100277.38
2022-09-15T03:07:14.420Z,100281.44
2022-09-15T03:09:40.817Z,100282.56
2022-09-15T03:12:07.635Z,100280.63
2022-09-15T03:14:34.470Z,100285.34
2022-09-15T03:17:01.583Z,100286.88
2022-09-15T03:19:27.996Z,100283.63
2022-09-15T03:21:54.390Z,100283.91
2022-09-15T03:24:20.839Z,100278.88
2022-09-15T03:26:48.030Z,100294.75
2022-09-15T03:29:14.769Z,100287.09
2022-09-15T03:31:41.586Z,100289.88
2022-09-15T03:34:08.114Z,100283.53
2022-09-15T03:36:34.642Z,100288.69
2022-09-15T03:39:01.058Z,100302.50
2022-09-15T03:41:27.966Z,100289.91
2022-09-15T03:43:54.530Z,100291.38
2022-09-15T03:46:20.972Z,100295.25
2022-09-15T03:48:50.277Z,100292.63
2022-09-15T03:51:16.871Z,100280.31
2022-09-15T03:53:43.406Z,100284.06
2022-09-15T03:56:24.653Z,100284.84
2022-09-15T03:58:51.908Z,100283.75
2022-09-15T04:01:19.371Z,100286.84
2022-09-15T04:03:50.620Z,100287.84
2022-09-15T04:06:19.037Z,100288.81
2022-09-15T04:08:45.533Z,100277.84
2022-09-15T04:11:12.708Z,100280.63
2022-09-15T04:13:40.594Z,100285.59
2022-09-15T04:16:09.651Z,100280.09
2022-09-15T04:18:36.179Z,100282.91
2022-09-15T04:21:05.614Z,100283.94
2022-09-15T04:23:32.163Z,100279.31
2022-09-15T04:26:01.023Z,100286.34
2022-09-15T04:28:29.005Z,100291.81
2022-09-15T04:31:06.910Z,100290.75
2022-09-15T04:33:34.294Z,100285.59
2022-09-15T04:36:08.994Z,100283.97
2022-09-15T04:38:38.900Z,100283.44
2022-09-15T04:41:06.307Z,100281.41
2022-09-15T04:43:33.380Z,100280.63
2022-09-15T04:45:59.770Z,100281.94
2022-09-15T04:48:27.096Z,100296.03
2022-09-15T04:50:53.992Z,100295.03
2022-09-15T04:53:20.785Z,100287.59
2022-09-15T04:55:47.226Z,100289.53
2022-09-15T04:58:13.838Z,100296.28
2022-09-15T05:00:43.651Z,100289.53
2022-09-15T05:03:11.068Z,100286.13
2022-09-15T05:05:37.767Z,100298.81
2022-09-15T05:08:04.232Z,100294.53
2022-09-15T05:10:30.899Z,100298.41
2022-09-15T05:12:57.345Z,100290.22
2022-09-15T05:15:24.183Z,100290.63
2022-09-15T05:17:50.610Z,100296.00
2022-09-15T05:20:17.727Z,100300.31
2022-09-15T05:22:44.651Z,100290.16
2022-09-15T05:25:11.312Z,100285.88
2022-09-15T05:27:39.256Z,100282.13
2022-09-15T05:30:34.825Z,100288.13
2022-09-15T05:32:53.822Z,100284.16
2022-09-15T05:35:20.266Z,100284.22
2022-09-15T05:37:46.974Z,100293.56
2022-09-15T05:40:13.441Z,100293.66
2022-09-15T05:42:40.609Z,100285.13
2022-09-15T05:45:07.600Z,100294.44
2022-09-15T05:47:35.348Z,100290.91
2022-09-15T05:50:01.788Z,100284.59
2022-09-15T05:52:28.231Z,100293.06
2022-09-15T05:54:58.875Z,100299.81
2022-09-15T05:57:25.625Z,100294.25
2022-09-15T05:59:52.225Z,100296.50
2022-09-15T06:02:19.093Z,100297.75
2022-09-15T06:04:45.618Z,100294.78
2022-09-15T06:07:12.412Z,100296.19
2022-09-15T06:09:39.524Z,100305.78
2022-09-15T06:12:06.130Z,100304.69
2022-09-15T06:14:32.561Z,100306.13
2022-09-15T06:16:58.975Z,100306.13
2022-09-15T06:19:25.359Z,100301.34
2022-09-15T06:21:52.537Z,100293.69
2022-09-15T06:24:19.342Z,100301.16
2022-09-15T06:26:45.888Z,100304.22
2022-09-15T06:29:12.775Z,100306.97
2022-09-15T06:31:39.613Z,100308.31
2022-09-15T06:34:06.799Z,100291.31
2022-09-15T06:36:33.319Z,100299.88
2022-09-15T06:38:59.946Z,100307.59
2022-09-15T06:41:35.358Z,100308.81
2022-09-15T06:44:13.853Z,100312.38
2022-09-15T06:46:40.322Z,100312.47
2022-09-15T06:49:07.051Z,100307.59
2022-09-15T06:51:35.600Z,100308.47
2022-09-15T06:54:03.080Z,100316.00
2022-09-15T06:56:32.472Z,100311.13
2022-09-15T06:59:01.176Z,100309.63
2022-09-15T07:01:31.639Z,100320.22
2022-09-15T07:03:59.510Z,100315.84
2022-09-15T07:06:30.205Z,100322.09
2022-09-15T07:08:58.420Z,100321.59
2022-09-15T07:11:26.105Z,100332.84
2022-09-15T07:13:52.622Z,100321.00
2022-09-15T07:16:19.792Z,100316.75
2022-09-15T07:18:47.355Z,100324.97
2022-09-15T07:21:16.050Z,100325.84
2022-09-15T07:23:43.014Z,100328.22
2022-09-15T07:26:17.024Z,100332.16
2022-09-15T07:28:45.701Z,100325.59
2022-09-15T07:31:15.278Z,100338.38
2022-09-15T07:33:41.887Z,100338.53
2022-09-15T07:36:09.295Z,100334.59
2022-09-15T07:38:39.543Z,100332.66
2022-09-15T07:41:07.962Z,100338.25
2022-09-15T07:43:34.535Z,100333.56
2022-09-15T07:46:01.705Z,100336.00
2022-09-15T07:48:28.487Z,100342.06
2022-09-15T07:50:55.233Z,100331.50
2022-09-15T07:53:22.003Z,100342.91
2022-09-15T07:55:55.538Z,100348.59
2022-09-15T07:58:23.873Z,100357.94
2022-09-15T08:00:50.510Z,100351.75
2022-09-15T08:03:16.985Z,100361.13
2022-09-15T08:05:45.581Z,100364.09
2022-09-15T08:08:12.455Z,100355.44
2022-09-15T08:10:40.343Z,100365.53
2022-09-15T08:13:06.791Z,100374.94
2022-09-15T08:15:35.770Z,100373.66
2022-09-15T08:18:02.545Z,100373.66
2022-09-15T08:20:31.247Z,100373.94
2022-09-15T08:22:57.853Z,100374.63
2022-09-15T08:25:24.891Z,100378.84
2022-09-15T08:27:52.921Z,100369.22
2022-09-15T08:30:19.810Z,100367.91
2022-09-15T08:32:46.602Z,100371.47
2022-09-15T08:35:12.997Z,100369.53
2022-09-15T08:38:27.643Z,100377.44
2022-09-15T08:41:06.833Z,100372.88
2022-09-15T08:43:39.893Z,100379.78
2022-09-15T08:46:07.769Z,100377.50
2022-09-15T08:48:40.116Z,100392.88
2022-09-15T08:51:14.510Z,100390.97
2022-09-15T08:53:48.208Z,100392.78
2022-09-15T08:56:17.387Z,100391.84
2022-09-15T08:58:45.194Z,100394.59
2022-09-15T09:01:11.719Z,100411.31
2022-09-15T09:04:03.947Z,100417.91
2022-09-15T09:06:44.830Z,100425.09
2022-09-15T09:09:32.673Z,100427.38
2022-09-15T09:12:12.622Z,100424.66
2022-09-15T09:14:50.111Z,100436.78
2022-09-15T09:17:53.919Z,100445.66
2022-09-15T09:20:41.641Z,100435.66
2022-09-15T09:23:13.310Z,100427.06
2022-09-15T09:25:41.891Z,100415.78
2022-09-15T09:28:38.125Z,100415.75
2022-09-15T09:31:08.293Z,100411.25
2022-09-15T09:33:46.809Z,100407.97
2022-09-15T09:36:14.152Z,100414.72
2022-09-15T09:38:43.186Z,100416.97
2022-09-15T09:41:18.860Z,100412.84
2022-09-15T09:43:47.706Z,100423.81
2022-09-15T09:46:17.747Z,100422.13
2022-09-15T09:48:48.409Z,100413.38
2022-09-15T09:51:38.162Z,100417.91
2022-09-15T09:54:16.558Z,100410.88
2022-09-15T09:56:45.772Z,100412.34
2022-09-15T09:59:34.757Z,100414.75
2022-09-15T10:02:10.804Z,100425.25
2022-09-15T10:04:43.236Z,100414.69
2022-09-15T10:07:10.873Z,100414.25
2022-09-15T10:09:38.697Z,100405.44
2022-09-15T10:12:06.278Z,100423.38
2022-09-15T10:14:42.152Z,100413.09
2022-09-15T10:17:09.916Z,100404.91
2022-09-15T10:19:45.667Z,100407.91
2022-09-15T10:22:31.637Z,100401.47
2022-09-15T10:24:59.196Z,100409.59
2022-09-15T10:27:29.730Z,100407.63
2022-09-15T10:29:59.610Z,100403.69
2022-09-15T10:32:29.602Z,100395.56
2022-09-15T10:35:01.430Z,100394.63
2022-09-15T10:37:36.086Z,100399.28
2022-09-15T10:40:35.799Z,100397.56
2022-09-15T10:43:18.613Z,100393.13
2022-09-15T10:46:00.587Z,100392.66
2022-09-15T10:48:51.978Z,100387.19
2022-09-15T10:51:52.005Z,100391.22
2022-09-15T10:54:34.141Z,100396.72
2022-09-15T10:57:42.839Z,100390.00
2022-09-15T11:00:12.210Z,100387.59
2022-09-15T11:03:21.259Z,100386.69
2022-09-15T11:06:13.753Z,100396.03
2022-09-15T11:08:55.279Z,100395.00
2022-09-15T11:11:30.708Z,100387.56
2022-09-15T11:14:07.354Z,100387.47
2022-09-15T11:17:11.124Z,100402.84
2022-09-15T11:20:06.860Z,100423.25
2022-09-15T11:22:37.958Z,100412.94
2022-09-15T11:25:26.645Z,100428.66
2022-09-15T11:27:56.124Z,100422.56
2022-09-15T11:30:31.581Z,100435.19
2022-09-15T11:33:13.287Z,100442.28
2022-09-15T11:35:49.634Z,100432.25
2022-09-15T11:38:31.181Z,100435.69
2022-09-15T11:41:14.615Z,100426.47
2022-09-15T11:43:55.456Z,100423.25
2022-09-15T11:46:31.294Z,100429.13
2022-09-15T11:49:05.915Z,100414.19
2022-09-15T11:51:36.524Z,100418.41
2022-09-15T11:54:07.814Z,100417.63
2022-09-15T11:56:40.946Z,100423.69
2022-09-15T11:59:17.505Z,100425.31
2022-09-15T12:01:52.743Z,100416.69
2022-09-15T12:04:27.506Z,100423.16
2022-09-15T12:07:18.899Z,100415.69
2022-09-15T12:09:45.508Z,100420.44
2022-09-15T12:12:15.187Z,100417.00
2022-09-15T12:14:44.391Z,100424.38
2022-09-15T12:17:31.079Z,100419.06
2022-09-15T12:20:03.043Z,100426.72
2022-09-15T12:22:46.465Z,100415.72
2022-09-15T12:25:15.047Z,100417.69
2022-09-15T12:27:41.480Z,100423.38
2022-09-15T12:30:43.763Z,100404.47
2022-09-15T12:33:47.857Z,100416.84
2022-09-15T12:36:34.206Z,100419.16
2022-09-15T12:39:02.374Z,100423.66
2022-09-15T12:41:29.718Z,100429.16
2022-09-15T12:43:59.132Z,100431.22
2022-09-15T12:46:25.879Z,100424.59
2022-09-15T12:48:54.664Z,100432.38
2022-09-15T12:51:24.034Z,100423.28
2022-09-15T12:53:54.729Z,100437.28
2022-09-15T12:56:27.167Z,100447.94
2022-09-15T12:58:54.598Z,100436.69
2022-09-15T13:01:30.217Z,100446.00
2022-09-15T13:03:57.849Z,100442.78
2022-09-15T13:06:34.259Z,100450.06
2022-09-15T13:09:07.084Z,100452.75
2022-09-15T13:11:34.613Z,100445.59
2022-09-15T13:14:03.982Z,100435.25
2022-09-15T13:16:31.602Z,100424.44
2022-09-15T13:19:12.298Z,100413.28
2022-09-15T13:21:41.394Z,100412.38
2022-09-15T13:24:17.736Z,100415.13
2022-09-15T13:26:44.758Z,100423.78
2022-09-15T13:29:15.281Z,100421.09
2022-09-15T13:31:53.533Z,100421.69
2022-09-15T13:35:04.768Z,100421.03
2022-09-15T13:38:29.142Z,100422.38
2022-09-15T13:41:11.985Z,100451.72
2022-09-15T13:43:47.605Z,100442.88
2022-09-15T13:46:27.474Z,100440.63
2022-09-15T13:49:01.080Z,100440.25
2022-09-15T13:51:29.111Z,100443.41
2022-09-15T13:53:59.707Z,100435.56
2022-09-15T13:56:28.259Z,100424.66
2022-09-15T13:59:04.295Z,100433.84
2022-09-15T14:01:36.255Z,100435.91
2022-09-15T14:04:11.040Z,100434.97
2022-09-15T14:06:41.797Z,100433.97
2022-09-15T14:09:14.983Z,100431.28
2022-09-15T14:11:43.866Z,100427.59
2022-09-15T14:14:28.391Z,100414.03
2022-09-15T14:16:56.752Z,100432.53
2022-09-15T14:19:34.726Z,100435.50
2022-09-15T14:22:03.584Z,100437.31
2022-09-15T14:24:31.908Z,100437.53
2022-09-15T14:27:00.524Z,100442.59
2022-09-15T14:29:27.196Z,100453.34
2022-09-15T14:31:54.256Z,100451.25
2022-09-15T14:34:23.629Z,100443.78
2022-09-15T14:37:05.286Z,100465.59
2022-09-15T14:39:33.429Z,100448.91
2022-09-15T14:42:09.357Z,100446.97
2022-09-15T14:47:28.059Z,100438.88
2022-09-15T14:50:14.641Z,100453.75
2022-09-15T14:52:44.068Z,100436.88
2022-09-15T14:55:24.219Z,100440.09
2022-09-15T14:57:57.690Z,100439.41
2022-09-15T15:00:28.245Z,100448.50
2022-09-15T15:03:17.621Z,100442.69
2022-09-15T15:05:58.127Z,100436.25
2022-09-15T15:08:42.619Z,100434.22
2022-09-15T15:11:10.938Z,100428.91
2022-09-15T15:13:39.776Z,100426.22
2022-09-15T15:16:20.566Z,100422.75
2022-09-15T15:18:47.364Z,100432.59
2022-09-15T15:21:35.576Z,100439.91
2022-09-15T15:24:22.678Z,100440.22
2022-09-15T15:26:50.221Z,100447.63
2022-09-15T15:29:46.183Z,100449.97
2022-09-15T15:32:17.980Z,100451.38
2022-09-15T15:34:49.243Z,100448.00
2022-09-15T15:37:30.823Z,100444.72
2022-09-15T15:40:00.120Z,100443.56
2022-09-15T15:42:28.852Z,100448.25
2022-09-15T15:45:09.274Z,100458.91
2022-09-15T15:47:36.830Z,100451.75
2022-09-15T15:50:21.169Z,100442.84
2022-09-15T15:52:48.971Z,100459.13
2022-09-15T15:55:19.896Z,100454.00
2022-09-15T15:57:51.719Z,100449.66
2022-09-15T16:00:23.861Z,100445.47
2022-09-15T16:02:51.405Z,100444.38
2022-09-15T16:05:18.837Z,100441.91
2022-09-15T16:07:46.919Z,100444.50
2022-09-15T16:10:19.584Z,100451.97
2022-09-15T16:12:45.991Z,100450.41
2022-09-15T16:15:30.733Z,100463.53
2022-09-15T16:17:57.202Z,100470.09
2022-09-15T16:20:25.226Z,100472.91
2022-09-15T16:22:52.452Z,100467.28
2022-09-15T16:25:33.234Z,100456.19
2022-09-15T16:28:00.672Z,100459.28
2022-09-15T16:30:27.592Z,100453.47
2022-09-15T16:32:54.726Z,100462.47
2022-09-15T16:35:32.757Z,100465.63
2022-09-15T16:37:59.188Z,100462.00
2022-09-15T16:40:25.689Z,100455.09
2022-09-15T16:42:52.236Z,100457.94
2022-09-15T16:45:29.733Z,100455.06
2022-09-15T16:47:56.264Z,100448.25
2022-09-15T16:50:22.847Z,100454.94
2022-09-15T16:52:50.401Z,100455.38
2022-09-15T16:55:19.623Z,100449.72
2022-09-15T16:57:46.230Z,100456.38
2022-09-15T17:00:13.326Z,100459.94
2022-09-15T17:02:39.946Z,100459.94
2022-09-15T17:05:15.122Z,100457.25
2022-09-15T17:07:41.827Z,100452.53
2022-09-15T17:10:08.346Z,100455.09
2022-09-15T17:12:35.011Z,100452.00
2022-09-15T17:15:01.447Z,100455.09
2022-09-15T17:17:27.839Z,100455.22
2022-09-15T17:19:54.213Z,100463.13
2022-09-15T17:22:20.794Z,100455.66
2022-09-15T17:24:50.149Z,100460.19
2022-09-15T17:27:16.705Z,100462.59
2022-09-15T17:29:43.115Z,100468.63
2022-09-15T17:32:09.550Z,100480.63
2022-09-15T17:34:35.966Z,100474.13
2022-09-15T17:37:02.397Z,100472.56
2022-09-15T17:39:28.950Z,100482.06
2022-09-15T17:41:55.402Z,100481.69
2022-09-15T17:44:21.897Z,100480.81
2022-09-15T17:46:48.308Z,100476.19
2022-09-15T17:49:14.950Z,100476.47
2022-09-15T17:51:41.373Z,100469.88
2022-09-15T17:54:10.728Z,100483.34
2022-09-15T17:56:37.183Z,100485.28
2022-09-15T17:59:03.768Z,100487.69
2022-09-15T18:01:30.297Z,100480.63
2022-09-15T18:03:56.758Z,100484.97
2022-09-15T18:06:24.272Z,100484.13
2022-09-15T18:08:52.318Z,100478.31
2022-09-15T18:11:18.743Z,100485.19
2022-09-15T18:13:45.210Z,100481.56
2022-09-15T18:16:13.520Z,100478.03
2022-09-15T18:18:41.009Z,100483.09
2022-09-15T18:21:11.909Z,100485.88
2022-09-15T18:23:39.127Z,100489.25
2022-09-15T18:26:05.726Z,100479.41
2022-09-15T18:28:32.117Z,100490.38
2022-09-15T18:30:58.921Z,100485.59
2022-09-15T18:33:25.976Z,100470.63
2022-09-15T18:35:54.650Z,100491.81
2022-09-15T18:38:22.086Z,100491.88
2022-09-15T18:40:50.728Z,100489.53
2022-09-15T18:43:17.557Z,100503.22
2022-09-15T18:45:44.047Z,100490.63
2022-09-15T18:48:12.850Z,100492.72
2022-09-15T18:50:40.832Z,100487.50
2022-09-15T18:53:07.304Z,100482.66
2022-09-15T18:55:33.733Z,100490.44
2022-09-15T18:58:01.288Z,100490.41
2022-09-15T19:00:28.784Z,100492.06
2022-09-15T19:02:59.776Z,100490.47
2022-09-15T19:05:27.371Z,100494.53
2022-09-15T19:07:54.156Z,100490.03
2022-09-15T19:10:20.891Z,100490.69
2022-09-15T19:12:47.327Z,100497.84
2022-09-15T19:15:14.741Z,100484.72
2022-09-15T19:17:41.415Z,100488.56
2022-09-15T19:20:09.720Z,100480.66
2022-09-15T19:22:36.926Z,100494.84
2022-09-15T19:25:04.702Z,100488.91
2022-09-15T19:27:31.367Z,100486.66
2022-09-15T19:29:57.959Z,100490.56
2022-09-15T19:32:24.536Z,100501.47
2022-09-15T19:34:51.172Z,100496.25
2022-09-15T19:37:19.687Z,100496.84
2022-09-15T19:39:47.214Z,100499.97
2022-09-15T19:44:46.260Z,100486.41
2022-09-15T19:47:12.824Z,100485.22
2022-09-15T19:49:39.321Z,100491.34
2022-09-15T19:52:06.453Z,100495.81
2022-09-15T19:54:34.605Z,100490.75
2022-09-15T19:57:01.723Z,100492.53
2022-09-15T19:59:31.218Z,100495.50
2022-09-15T20:01:58.054Z,100499.41
2022-09-15T20:04:24.533Z,100492.22
2022-09-15T20:06:51.090Z,100494.31
2022-09-15T20:09:17.662Z,100499.38
2022-09-15T20:11:44.324Z,100494.63
2022-09-15T20:14:10.985Z,100493.41
2022-09-15T20:16:37.534Z,100491.03
2022-09-15T20:19:04.896Z,100492.84
2022-09-15T20:21:49.380Z,100502.38
2022-09-15T20:24:17.527Z,100494.91
2022-09-15T20:26:44.136Z,100496.28
2022-09-15T20:29:11.163Z,100499.69
2022-09-15T20:31:37.662Z,100500.59
2022-09-15T20:34:04.261Z,100500.47
2022-09-15T20:36:36.195Z,100502.09
2022-09-15T20:39:04.886Z,100498.78
2022-09-15T20:41:34.240Z,100502.09
2022-09-15T20:44:00.863Z,100501.78
2022-09-15T20:46:29.458Z,100506.69
2022-09-15T20:48:56.100Z,100502.66
2022-09-15T20:51:28.267Z,100506.56
2022-09-15T20:53:56.463Z,100508.50
2022-09-15T20:56:25.522Z,100509.25
2022-09-15T20:58:56.731Z,100509.81
2022-09-15T21:01:25.430Z,100516.69
2022-09-15T21:03:52.034Z,100517.31
2022-09-15T21:06:20.411Z,100506.13
2022-09-15T21:08:47.858Z,100511.19
2022-09-15T21:11:15.799Z,100505.69
2022-09-15T21:13:43.442Z,100512.06
2022-09-15T21:16:15.832Z,100515.22
2022-09-15T21:18:43.396Z,100516.13
2022-09-15T21:21:11.753Z,100512.09
2022-09-15T21:23:43.137Z,100522.69
2022-09-15T21:26:15.139Z,100520.59
2022-09-15T21:28:43.526Z,100517.19
2022-09-15T21:31:12.697Z,100519.41
2022-09-15T21:33:39.614Z,100530.16
2022-09-15T21:36:11.306Z,100524.63
2022-09-15T21:38:40.516Z,100525.06
2022-09-15T21:41:09.406Z,100525.38
2022-09-15T21:43:39.201Z,100532.50
2022-09-15T21:46:08.421Z,100534.88
2022-09-15T21:48:35.849Z,100533.72
2022-09-15T21:51:04.105Z,100528.00
2022-09-15T21:53:32.391Z,100533.06
2022-09-15T21:56:03.744Z,100527.88
2022-09-15T21:58:38.993Z,100529.78
2022-09-15T22:01:20.215Z,100527.09
2022-09-15T22:03:51.589Z,100533.25
2022-09-15T22:06:19.147Z,100523.78
2022-09-15T22:08:46.662Z,100525.00
2022-09-15T22:11:13.313Z,100529.78
2022-09-15T22:13:41.506Z,100532.63
2022-09-15T22:16:10.952Z,100533.94
2022-09-15T22:18:38.598Z,100536.28
2022-09-15T22:21:13.782Z,100536.16
2022-09-15T22:23:41.136Z,100540.19
2022-09-15T22:26:10.271Z,100538.09
2022-09-15T22:28:36.834Z,100538.75
2022-09-15T22:31:05.808Z,100537.97
2022-09-15T22:33:32.281Z,100534.25
2022-09-15T22:35:58.784Z,100529.47
2022-09-15T22:38:28.120Z,100539.63
2022-09-15T22:40:55.496Z,100533.00
2022-09-15T22:43:22.450Z,100538.44
2022-09-15T22:45:49.054Z,100534.81
2022-09-15T22:48:15.455Z,100536.88
2022-09-15T22:50:45.160Z,100534.75
2022-09-15T22:53:12.882Z,100534.13
2022-09-15T22:55:39.917Z,100539.25
2022-09-15T22:58:06.357Z,100533.56
2022-09-15T23:00:33.056Z,100532.66
2022-09-15T23:02:59.879Z,100528.50
2022-09-15T23:05:26.279Z,100532.38
2022-09-15T23:07:52.689Z,100522.66
2022-09-15T23:10:19.103Z,100528.19
2022-09-15T23:12:45.650Z,100525.81
2022-09-15T23:15:12.075Z,100526.72
2022-09-15T23:17:39.063Z,100527.47
2022-09-15T23:20:06.009Z,100525.97
2022-09-15T23:22:32.449Z,100521.78
2022-09-15T23:24:58.999Z,100529.13
2022-09-15T23:27:25.390Z,100519.09
2022-09-15T23:29:51.834Z,100514.47
2022-09-15T23:32:18.448Z,100523.94
2022-09-15T23:34:44.881Z,100514.41
2022-09-15T23:37:11.267Z,100512.06
2022-09-15T23:39:37.807Z,100517.97
2022-09-15T23:42:04.611Z,100516.13
2022-09-15T23:44:31.342Z,100516.13
2022-09-15T23:46:57.985Z,100510.47
2022-09-15T23:49:24.442Z,100503.56
2022-09-15T23:51:50.985Z,100506.25
2022-09-15T23:54:18.090Z,100512.06
2022-09-15T23:56:44.566Z,100508.94
2022-09-15T23:59:10.970Z,100505.16
